Time;durP1;ratioP1;P1;durP2;ratioP2;P2;SDS_P1;SDS_P2;PMS_P1;PMS_P2;Temp;Humidity;BMP_temperature;BMP_pressure;BME280_temperature;BME280_humidity;BME280_pressure;Samples;Min_cycle;Max_cycle;Signal;HPM_P1;HPM_P2
2022/03/21 00:01:35;;;;;;;;;;;1.30;93.40;;;;;;5031680;28;20050;-70
2022/03/21 00:04:00;;;;;;;;;;;1.30;93.30;;;;;;5032756;28;20359;-70
2022/03/21 00:06:26;;;;;;;;;;;1.50;93.00;;;;;;5033124;28;19916;-70
2022/03/21 00:08:52;;;;;;;;;;;1.30;93.00;;;;;;5033085;28;19909;-70
2022/03/21 00:11:18;;;;;;;;;;;1.20;93.50;;;;;;5032780;28;19917;-70
2022/03/21 00:13:44;;;;;;;;;;;1.20;93.70;;;;;;5032579;28;20059;-70
2022/03/21 00:16:12;;;;;;;;;;;1.30;93.60;;;;;;5031984;28;19956;-70
2022/03/21 00:18:38;;;;;;;;;;;1.40;93.20;;;;;;5032778;28;19909;-71
2022/03/21 00:21:03;;;;;;;;;;;1.40;93.20;;;;;;5049755;28;20289;-71
2022/03/21 00:23:30;;;;;;;;;;;1.30;93.40;;;;;;5035663;28;19972;-71
2022/03/21 00:25:56;;;;;;;;;;;1.30;93.40;;;;;;5032651;28;19913;-69
2022/03/21 00:28:22;;;;;;;;;;;1.00;94.10;;;;;;5032589;28;19910;-69
2022/03/21 00:30:47;;;;;;;;;;;0.80;94.30;;;;;;5032640;28;19963;-69
2022/03/21 00:33:13;;;;;;;;;;;0.70;95.30;;;;;;5032104;28;19913;-70
2022/03/21 00:35:42;;;;;;;;;;;0.90;94.90;;;;;;5032583;28;19910;-70
2022/03/21 00:38:11;;;;;;;;;;;1.10;94.20;;;;;;5032881;28;19948;-70
2022/03/21 00:40:36;;;;;;;;;;;1.20;93.90;;;;;;5032599;28;19910;-70
2022/03/21 00:43:03;;;;;;;;;;;1.40;93.10;;;;;;5032263;28;20362;-70
2022/03/21 00:45:28;;;;;;;;;;;1.10;93.70;;;;;;5032313;28;20286;-70
2022/03/21 00:47:54;;;;;;;;;;;0.80;94.30;;;;;;5032388;28;19909;-70
2022/03/21 00:50:21;;;;;;;;;;;0.90;94.50;;;;;;5034041;28;19916;-70
2022/03/21 00:52:46;;;;;;;;;;;1.80;92.50;;;;;;5047442;28;19912;-69
2022/03/21 00:55:13;;;;;;;;;;;1.80;92.40;;;;;;5032358;28;19963;-69
2022/03/21 00:57:40;;;;;;;;;;;1.70;92.50;;;;;;5032216;28;19909;-69
2022/03/21 01:00:08;;;;;;;;;;;1.70;92.30;;;;;;5032134;28;19967;-69
2022/03/21 01:02:35;;;;;;;;;;;1.50;92.80;;;;;;5032004;28;19960;-69
2022/03/21 01:05:00;;;;;;;;;;;1.40;93.20;;;;;;5031759;28;19909;-69
2022/03/21 01:07:26;;;;;;;;;;;1.40;93.20;;;;;;5032159;28;19910;-69
2022/03/21 01:09:51;;;;;;;;;;;1.30;93.20;;;;;;5031704;28;19909;-68
2022/03/21 01:12:17;;;;;;;;;;;1.60;92.70;;;;;;5031846;28;19959;-69
2022/03/21 01:14:42;;;;;;;;;;;1.60;92.70;;;;;;5031916;28;19967;-69
2022/03/21 01:17:08;;;;;;;;;;;1.40;93.00;;;;;;5035812;28;19916;-68
2022/03/21 01:19:33;;;;;;;;;;;1.30;93.10;;;;;;5047926;28;19917;-69
2022/03/21 01:21:59;;;;;;;;;;;1.50;92.90;;;;;;5038209;28;19909;-69
2022/03/21 01:24:25;;;;;;;;;;;1.30;93.40;;;;;;5031788;28;20004;-69
2022/03/21 01:26:50;;;;;;;;;;;1.10;93.80;;;;;;5033086;28;19984;-69
2022/03/21 01:29:16;;;;;;;;;;;1.00;94.20;;;;;;5035908;28;19909;-69
2022/03/21 01:31:41;;;;;;;;;;;1.00;94.30;;;;;;5035713;28;19909;-69
2022/03/21 01:34:07;;;;;;;;;;;1.20;93.90;;;;;;5035649;28;19913;-69
2022/03/21 01:36:32;;;;;;;;;;;1.40;93.50;;;;;;5036054;28;20389;-69
2022/03/21 01:38:58;;;;;;;;;;;1.50;93.30;;;;;;5035844;28;20065;-69
2022/03/21 01:41:23;;;;;;;;;;;1.60;93.00;;;;;;5035377;28;19916;-69
2022/03/21 01:43:59;;;;;;;;;;;1.50;92.90;;;;;;5035506;28;19909;-69
2022/03/21 01:46:25;;;;;;;;;;;1.00;94.10;;;;;;5035700;28;19913;-69
2022/03/21 01:48:50;;;;;;;;;;;0.60;95.10;;;;;;5042367;28;20035;-70
2022/03/21 01:51:16;;;;;;;;;;;0.40;96.10;;;;;;5050412;28;19944;-70
2022/03/21 01:56:26;;;;;;;;;;;0.30;96.80;;;;;;5039840;28;19920;-69
2022/03/21 01:58:52;;;;;;;;;;;0.20;97.60;;;;;;5054591;28;19908;-69
2022/03/21 02:01:17;;;;;;;;;;;0.20;97.80;;;;;;5054415;28;20358;-69
2022/03/21 02:03:43;;;;;;;;;;;0.20;98.30;;;;;;5054232;28;19963;-69
2022/03/21 02:06:08;;;;;;;;;;;0.10;98.70;;;;;;5054320;28;19919;-69
2022/03/21 02:08:34;;;;;;;;;;;0.00;99.20;;;;;;5054280;28;19995;-69
2022/03/21 02:11:00;;;;;;;;;;;0.10;99.10;;;;;;5054147;28;19909;-69
2022/03/21 02:13:26;;;;;;;;;;;0.40;98.60;;;;;;5053831;28;19921;-69
2022/03/21 02:15:52;;;;;;;;;;;0.60;97.90;;;;;;5054392;28;20279;-69
2022/03/21 02:18:18;;;;;;;;;;;0.60;97.20;;;;;;5054180;28;19948;-69
2022/03/21 02:20:44;;;;;;;;;;;0.50;97.50;;;;;;5045510;28;19909;-69
2022/03/21 02:23:27;;;;;;;;;;;0.30;97.80;;;;;;5045029;28;19913;-69
2022/03/21 02:25:54;;;;;;;;;;;0.20;97.90;;;;;;5034907;28;20355;-69
2022/03/21 02:28:20;;;;;;;;;;;0.50;96.90;;;;;;5035205;28;20179;-69
2022/03/21 02:30:47;;;;;;;;;;;0.40;96.90;;;;;;5034879;28;20377;-69
2022/03/21 02:33:13;;;;;;;;;;;0.20;98.40;;;;;;5034339;28;19967;-69
2022/03/21 02:35:39;;;;;;;;;;;0.00;98.50;;;;;;5034605;28;19913;-69
2022/03/21 02:38:06;;;;;;;;;;;0.10;98.20;;;;;;5033982;28;20007;-69
2022/03/21 02:40:32;;;;;;;;;;;0.10;98.90;;;;;;5034484;28;19913;-69
2022/03/21 02:42:57;;;;;;;;;;;0.00;99.50;;;;;;5034606;28;19909;-69
2022/03/21 02:45:23;;;;;;;;;;;0.10;99.90;;;;;;5034384;28;19917;-69
2022/03/21 02:47:49;;;;;;;;;;;0.20;98.60;;;;;;5034491;28;19963;-70
2022/03/21 02:50:20;;;;;;;;;;;0.30;98.60;;;;;;5040645;28;20290;-70
2022/03/21 02:52:47;;;;;;;;;;;0.30;99.60;;;;;;5037438;28;19917;-69
2022/03/21 02:55:13;;;;;;;;;;;0.20;99.50;;;;;;5034170;28;19916;-70
2022/03/21 02:57:38;;;;;;;;;;;0.20;99.80;;;;;;5034327;28;19909;-70
2022/03/21 03:00:04;;;;;;;;;;;0.30;99.90;;;;;;5034301;28;20266;-70
2022/03/21 03:02:30;;;;;;;;;;;0.40;99.60;;;;;;5033971;28;20008;-70
2022/03/21 03:04:55;;;;;;;;;;;0.40;99.90;;;;;;5034188;28;19913;-70
2022/03/21 03:07:21;;;;;;;;;;;0.50;99.90;;;;;;5034047;28;19909;-70
2022/03/21 03:09:46;;;;;;;;;;;0.70;99.40;;;;;;5034183;28;19971;-70
2022/03/21 03:12:12;;;;;;;;;;;0.80;98.80;;;;;;5033940;28;20395;-70
2022/03/21 03:14:37;;;;;;;;;;;0.80;98.90;;;;;;5033882;28;19909;-70
2022/03/21 03:17:03;;;;;;;;;;;0.70;99.90;;;;;;5033684;28;19971;-70
2022/03/21 03:19:29;;;;;;;;;;;0.80;99.80;;;;;;5034252;28;19963;-69
2022/03/21 03:21:55;;;;;;;;;;;0.80;99.50;;;;;;5043297;28;19913;-70
2022/03/21 03:24:23;;;;;;;;;;;0.70;99.90;;;;;;5036181;28;19956;-70
2022/03/21 03:26:48;;;;;;;;;;;0.80;99.90;;;;;;5034006;28;19909;-70
2022/03/21 03:29:14;;;;;;;;;;;0.80;99.90;;;;;;5033839;28;19971;-70
2022/03/21 03:31:40;;;;;;;;;;;0.70;99.90;;;;;;5033327;28;20012;-70
2022/03/21 03:34:05;;;;;;;;;;;0.80;99.90;;;;;;5052649;28;19909;-70
2022/03/21 03:36:31;;;;;;;;;;;0.80;99.90;;;;;;5052935;28;19908;-70
2022/03/21 03:38:56;;;;;;;;;;;0.80;99.90;;;;;;5052835;28;19909;-70
2022/03/21 03:41:22;;;;;;;;;;;0.70;99.90;;;;;;5052627;28;20283;-70
2022/03/21 03:43:48;;;;;;;;;;;0.70;99.90;;;;;;5052812;28;20373;-70
2022/03/21 03:46:13;;;;;;;;;;;0.50;99.90;;;;;;5052336;28;19909;-70
2022/03/21 03:48:41;;;;;;;;;;;0.60;99.90;;;;;;5052543;28;19951;-70
2022/03/21 03:51:07;;;;;;;;;;;0.60;99.90;;;;;;5039009;28;20382;-70
2022/03/21 03:53:33;;;;;;;;;;;0.50;99.90;;;;;;5044361;28;19917;-70
2022/03/21 03:55:58;;;;;;;;;;;0.30;99.90;;;;;;5033286;28;19913;-70
2022/03/21 03:58:24;;;;;;;;;;;0.10;99.90;;;;;;5033109;28;19932;-70
2022/03/21 04:00:51;;;;;;;;;;;0.10;99.90;;;;;;5033005;28;19909;-70
2022/03/21 04:06:01;;;;;;;;;;;-0.10;99.90;;;;;;5033161;28;20002;-70
2022/03/21 04:08:27;;;;;;;;;;;-0.20;99.90;;;;;;5032995;28;19909;-70
2022/03/21 04:10:52;;;;;;;;;;;-0.30;99.90;;;;;;5033023;28;20269;-71
2022/03/21 04:13:18;;;;;;;;;;;-0.40;99.90;;;;;;5032540;28;19913;-70
2022/03/21 04:15:43;;;;;;;;;;;-0.30;99.90;;;;;;5032857;28;19920;-69
2022/03/21 04:18:09;;;;;;;;;;;-0.30;99.90;;;;;;5032989;28;19913;-70
2022/03/21 04:20:36;;;;;;;;;;;-0.40;99.90;;;;;;5047552;28;19955;-71
2022/03/21 04:23:02;;;;;;;;;;;-0.40;99.90;;;;;;5037543;28;19976;-70
2022/03/21 04:25:28;;;;;;;;;;;-0.40;99.90;;;;;;5032511;28;19909;-70
2022/03/21 04:27:53;;;;;;;;;;;-0.40;99.90;;;;;;5032587;28;19957;-70
2022/03/21 04:30:19;;;;;;;;;;;-0.40;99.90;;;;;;5032660;28;19936;-70
2022/03/21 04:32:45;;;;;;;;;;;-0.60;99.90;;;;;;5032442;28;20397;-70
2022/03/21 04:35:11;;;;;;;;;;;-0.60;99.90;;;;;;5032303;28;19953;-70
2022/03/21 04:37:37;;;;;;;;;;;-0.60;99.90;;;;;;5032720;28;19909;-70
2022/03/21 04:40:03;;;;;;;;;;;-0.70;99.90;;;;;;5032544;28;19909;-70
2022/03/21 04:42:28;;;;;;;;;;;-0.60;99.90;;;;;;5032353;28;19909;-70
2022/03/21 04:44:54;;;;;;;;;;;-0.50;99.90;;;;;;5031203;28;20278;-70
2022/03/21 04:47:21;;;;;;;;;;;-0.60;99.90;;;;;;5032508;28;19909;-71
2022/03/21 04:49:47;;;;;;;;;;;-0.70;99.90;;;;;;5033113;28;19909;-70
2022/03/21 04:52:12;;;;;;;;;;;-0.90;99.90;;;;;;5049238;28;19995;-70
2022/03/21 04:54:39;;;;;;;;;;;-0.80;99.90;;;;;;5035291;28;20281;-70
2022/03/21 04:57:06;;;;;;;;;;;-0.80;99.90;;;;;;5041848;28;19908;-71
2022/03/21 04:59:32;;;;;;;;;;;-0.80;99.90;;;;;;5034314;28;19913;-71
2022/03/21 05:01:57;;;;;;;;;;;-0.60;99.90;;;;;;5031815;28;20004;-71
2022/03/21 05:04:23;;;;;;;;;;;-0.40;99.90;;;;;;5031810;28;19913;-70
2022/03/21 05:06:48;;;;;;;;;;;-0.30;99.90;;;;;;5032337;28;19909;-70
2022/03/21 05:09:14;;;;;;;;;;;-0.30;99.90;;;;;;5032544;28;19909;-70
2022/03/21 05:11:40;;;;;;;;;;;-0.30;99.90;;;;;;5032091;28;19909;-71
2022/03/21 05:14:05;;;;;;;;;;;-0.20;99.90;;;;;;5032031;28;19913;-70
2022/03/21 05:16:32;;;;;;;;;;;-0.10;99.90;;;;;;5032321;28;20457;-70
2022/03/21 05:18:58;;;;;;;;;;;-0.40;99.90;;;;;;5032044;28;20285;-71
2022/03/21 05:21:23;;;;;;;;;;;-0.70;99.90;;;;;;5032126;28;19910;-70
2022/03/21 05:32:01;;;;;;;;;;;-1.10;99.90;;;;;;5051498;28;19963;-70
2022/03/21 05:37:10;;;;;;;;;;;-1.00;99.90;;;;;;5051271;28;20301;-70
2022/03/21 05:40:31;;;;;;;;;;;-1.00;99.90;;;;;;5051080;28;19908;-70
2022/03/21 05:42:21;;;;;;;;;;;-1.00;99.90;;;;;;5051484;28;19916;-70
2022/03/21 05:44:47;;;;;;;;;;;-1.10;99.90;;;;;;5034754;28;19913;-70
2022/03/21 05:47:12;;;;;;;;;;;-1.20;99.90;;;;;;5032221;28;19954;-70
2022/03/21 05:49:38;;;;;;;;;;;-1.10;99.90;;;;;;5032334;28;19916;-70
2022/03/21 05:52:04;;;;;;;;;;;-1.20;99.90;;;;;;5034429;28;19913;-71
2022/03/21 05:54:29;;;;;;;;;;;-1.20;99.90;;;;;;5032393;28;19970;-71
2022/03/21 05:56:55;;;;;;;;;;;-1.20;99.90;;;;;;5037924;28;20265;-71
2022/03/21 06:02:04;;;;;;;;;;;-1.10;99.90;;;;;;5032789;28;19916;-71
2022/03/21 06:04:30;;;;;;;;;;;-0.90;99.90;;;;;;5042255;28;20098;-70
2022/03/21 06:06:56;;;;;;;;;;;-0.80;99.90;;;;;;5050957;28;20370;-70
2022/03/21 06:09:21;;;;;;;;;;;-0.60;99.90;;;;;;5051118;28;19955;-70
2022/03/21 06:11:49;;;;;;;;;;;-0.60;99.90;;;;;;5050678;28;20366;-70
2022/03/21 06:14:18;;;;;;;;;;;-0.70;99.90;;;;;;5052113;28;19970;-70
2022/03/21 06:16:44;;;;;;;;;;;-0.60;99.90;;;;;;5057920;28;19923;-71
2022/03/21 06:19:09;;;;;;;;;;;-0.50;99.90;;;;;;5055979;28;19909;-71
2022/03/21 06:21:35;;;;;;;;;;;-0.40;99.90;;;;;;5054792;28;20004;-71
2022/03/21 06:24:00;;;;;;;;;;;-0.30;99.90;;;;;;5054636;28;19909;-70
2022/03/21 06:26:26;;;;;;;;;;;-0.30;99.90;;;;;;5056356;28;19917;-71
2022/03/21 06:28:51;;;;;;;;;;;-0.20;99.90;;;;;;5043462;28;20328;-70
2022/03/21 06:31:17;;;;;;;;;;;-0.20;99.90;;;;;;5035970;28;19916;-70
2022/03/21 06:33:42;;;;;;;;;;;-0.10;99.90;;;;;;5033342;28;19974;-70
2022/03/21 06:36:08;;;;;;;;;;;-0.10;99.90;;;;;;5043497;28;19916;-71
2022/03/21 06:38:34;;;;;;;;;;;-0.20;99.90;;;;;;5045948;28;19963;-71
2022/03/21 06:41:00;;;;;;;;;;;-0.10;99.90;;;;;;5034981;28;19910;-71
2022/03/21 06:43:27;;;;;;;;;;;0.00;99.90;;;;;;5034657;28;19920;-71
2022/03/21 06:45:54;;;;;;;;;;;0.10;99.90;;;;;;5035145;28;19914;-71
2022/03/21 06:48:20;;;;;;;;;;;0.30;99.90;;;;;;5035263;28;19959;-70
2022/03/21 06:50:48;;;;;;;;;;;0.50;99.90;;;;;;5050520;28;19919;-70
2022/03/21 06:53:14;;;;;;;;;;;0.70;99.90;;;;;;5054185;28;19912;-70
2022/03/21 06:55:40;;;;;;;;;;;1.00;99.90;;;;;;5051382;28;19910;-70
2022/03/21 06:58:09;;;;;;;;;;;1.20;99.90;;;;;;5040136;28;20063;-70
2022/03/21 07:00:34;;;;;;;;;;;1.40;99.90;;;;;;5038931;28;19915;-71
2022/03/21 07:03:00;;;;;;;;;;;1.40;99.90;;;;;;5035808;28;20012;-70
2022/03/21 07:05:28;;;;;;;;;;;1.40;99.90;;;;;;5037430;28;20644;-70
2022/03/21 07:07:54;;;;;;;;;;;1.50;99.90;;;;;;5038452;28;20332;-71
2022/03/21 07:10:20;;;;;;;;;;;1.70;99.90;;;;;;5039881;28;19916;-71
2022/03/21 07:12:45;;;;;;;;;;;1.80;99.90;;;;;;5045975;28;19941;-72
2022/03/21 07:15:11;;;;;;;;;;;2.00;99.90;;;;;;5077319;28;19901;-72
2022/03/21 07:17:36;;;;;;;;;;;2.30;99.90;;;;;;5077124;28;19921;-71
2022/03/21 07:20:02;;;;;;;;;;;2.60;99.90;;;;;;5077240;28;20213;-72
2022/03/21 07:22:28;;;;;;;;;;;2.80;99.90;;;;;;5077603;28;19900;-71
2022/03/21 07:24:55;;;;;;;;;;;3.00;99.90;;;;;;5076894;28;19913;-72
2022/03/21 07:27:20;;;;;;;;;;;3.20;99.90;;;;;;5065907;28;19909;-71
2022/03/21 07:29:46;;;;;;;;;;;3.50;99.90;;;;;;5056220;28;20090;-72
2022/03/21 07:32:11;;;;;;;;;;;3.70;99.10;;;;;;5059721;28;19909;-72
2022/03/21 07:34:37;;;;;;;;;;;3.80;98.90;;;;;;5066984;28;19903;-72
2022/03/21 07:37:03;;;;;;;;;;;4.10;98.80;;;;;;5066946;28;19921;-72
2022/03/21 07:39:29;;;;;;;;;;;4.30;98.60;;;;;;5057271;28;19920;-72
2022/03/21 07:42:00;;;;;;;;;;;4.30;98.90;;;;;;5057143;28;19917;-72
2022/03/21 07:47:20;;;;;;;;;;;4.40;97.70;;;;;;5069975;28;19935;-72
2022/03/21 07:49:52;;;;;;;;;;;4.60;97.20;;;;;;5072468;28;19912;-71
2022/03/21 07:52:19;;;;;;;;;;;4.80;96.90;;;;;;5051772;28;20228;-71
2022/03/21 07:54:53;;;;;;;;;;;4.90;96.70;;;;;;5052166;28;19909;-71
2022/03/21 07:57:20;;;;;;;;;;;5.40;95.80;;;;;;5044863;28;19913;-69
2022/03/21 07:59:45;;;;;;;;;;;6.60;95.50;;;;;;5035851;28;19917;-69
2022/03/21 08:02:11;;;;;;;;;;;8.40;91.70;;;;;;5032719;28;19909;-69
2022/03/21 08:04:37;;;;;;;;;;;9.50;89.50;;;;;;5032293;28;19932;-69
2022/03/21 08:07:03;;;;;;;;;;;10.30;81.90;;;;;;5033055;28;20003;-69
2022/03/21 08:09:28;;;;;;;;;;;10.70;78.20;;;;;;5032841;28;19948;-70
2022/03/21 08:11:55;;;;;;;;;;;11.50;77.20;;;;;;5032663;28;20380;-71
2022/03/21 08:14:21;;;;;;;;;;;12.10;73.20;;;;;;5032397;28;19920;-70
2022/03/21 08:16:46;;;;;;;;;;;12.60;72.60;;;;;;5032431;28;19916;-70
2022/03/21 08:19:12;;;;;;;;;;;12.80;67.30;;;;;;5032176;28;20000;-70
2022/03/21 08:21:37;;;;;;;;;;;13.00;66.80;;;;;;5032474;28;19913;-70
2022/03/21 08:24:03;;;;;;;;;;;12.40;67.90;;;;;;5032332;28;19909;-69
2022/03/21 08:26:29;;;;;;;;;;;13.20;65.90;;;;;;5034733;28;19916;-70
2022/03/21 08:28:54;;;;;;;;;;;14.00;66.80;;;;;;5047735;28;19955;-71
2022/03/21 08:31:20;;;;;;;;;;;14.40;63.30;;;;;;5032074;28;20327;-70
2022/03/21 08:33:45;;;;;;;;;;;14.50;63.90;;;;;;5037869;28;19916;-70
2022/03/21 08:36:12;;;;;;;;;;;15.10;63.40;;;;;;5050565;28;19962;-70
2022/03/21 08:38:38;;;;;;;;;;;15.00;60.10;;;;;;5051414;28;19916;-70
2022/03/21 08:41:03;;;;;;;;;;;15.10;62.70;;;;;;5051148;28;19909;-70
2022/03/21 08:43:29;;;;;;;;;;;15.40;61.30;;;;;;5050859;28;19909;-70
2022/03/21 08:45:55;;;;;;;;;;;15.30;59.80;;;;;;5051055;28;19908;-70
2022/03/21 08:49:23;;;;;;;;;;;16.10;61.00;;;;;;5051279;28;19940;-71
2022/03/21 08:51:06;;;;;;;;;;;16.50;59.90;;;;;;5050718;28;19919;-70
2022/03/21 08:53:32;;;;;;;;;;;16.60;56.40;;;;;;5050758;28;19916;-70
2022/03/21 08:55:58;;;;;;;;;;;16.90;58.10;;;;;;5049527;28;19916;-70
2022/03/21 08:58:23;;;;;;;;;;;16.80;58.10;;;;;;5036187;28;19910;-71
2022/03/21 09:00:48;;;;;;;;;;;16.50;58.00;;;;;;5031269;28;19955;-70
2022/03/21 09:03:14;;;;;;;;;;;16.70;54.70;;;;;;5031360;28;20007;-70
2022/03/21 09:05:39;;;;;;;;;;;17.40;56.10;;;;;;5031755;28;19909;-71
2022/03/21 09:08:05;;;;;;;;;;;17.70;51.80;;;;;;5031688;28;20463;-71
2022/03/21 09:10:30;;;;;;;;;;;17.40;53.90;;;;;;5031536;28;19910;-71
2022/03/21 09:12:56;;;;;;;;;;;17.90;54.90;;;;;;5031417;28;19917;-71
2022/03/21 09:15:22;;;;;;;;;;;18.70;51.40;;;;;;5031661;28;19909;-71
2022/03/21 09:17:47;;;;;;;;;;;19.30;52.00;;;;;;5030800;28;19974;-71
2022/03/21 09:20:14;;;;;;;;;;;19.50;50.40;;;;;;5031523;28;19916;-70
2022/03/21 09:22:39;;;;;;;;;;;19.30;52.70;;;;;;5031514;28;19909;-72
2022/03/21 09:25:05;;;;;;;;;;;18.70;51.20;;;;;;5031234;28;19916;-71
2022/03/21 09:27:31;;;;;;;;;;;19.00;51.60;;;;;;5045128;28;20381;-71
2022/03/21 09:29:56;;;;;;;;;;;18.70;52.10;;;;;;5038835;28;19931;-72
2022/03/21 09:32:22;;;;;;;;;;;18.00;51.30;;;;;;5031388;28;19953;-72
2022/03/21 09:34:48;;;;;;;;;;;17.60;52.50;;;;;;5031502;28;20398;-70
2022/03/21 09:37:14;;;;;;;;;;;17.50;52.10;;;;;;5031626;28;19916;-70
2022/03/21 09:39:39;;;;;;;;;;;18.10;55.20;;;;;;5031396;28;19913;-70
2022/03/21 09:42:05;;;;;;;;;;;18.80;54.00;;;;;;5031272;28;19963;-71
2022/03/21 09:44:30;;;;;;;;;;;19.40;51.50;;;;;;5031035;28;19996;-71
2022/03/21 09:46:58;;;;;;;;;;;19.00;49.90;;;;;;5031388;28;20008;-72
2022/03/21 09:49:26;;;;;;;;;;;19.20;53.40;;;;;;5034941;28;20329;-71
2022/03/21 09:51:53;;;;;;;;;;;21.10;51.80;;;;;;5034076;28;20247;-71
2022/03/21 09:54:19;;;;;;;;;;;21.40;45.80;;;;;;5039728;28;19916;-71
2022/03/21 09:56:45;;;;;;;;;;;21.80;47.80;;;;;;5045059;28;19908;-72
2022/03/21 09:59:10;;;;;;;;;;;20.70;49.20;;;;;;5052262;28;19916;-71
2022/03/21 10:01:37;;;;;;;;;;;21.50;47.10;;;;;;5034930;28;20128;-71
2022/03/21 10:04:03;;;;;;;;;;;22.40;45.20;;;;;;5034827;28;19909;-71
2022/03/21 10:06:28;;;;;;;;;;;22.40;44.00;;;;;;5040780;28;19909;-71
2022/03/21 10:09:12;;;;;;;;;;;22.50;45.20;;;;;;5034908;28;19909;-71
2022/03/21 10:11:39;;;;;;;;;;;22.60;45.80;;;;;;5034349;28;19910;-71
2022/03/21 10:14:22;;;;;;;;;;;22.90;47.70;;;;;;5034539;28;19921;-71
2022/03/21 10:16:51;;;;;;;;;;;22.90;43.50;;;;;;5035075;28;19917;-71
2022/03/21 10:19:16;;;;;;;;;;;23.60;44.50;;;;;;5034839;28;19974;-71
2022/03/21 10:21:42;;;;;;;;;;;22.50;43.80;;;;;;5034603;28;19913;-71
2022/03/21 10:24:07;;;;;;;;;;;21.20;45.30;;;;;;5034208;28;20262;-70
2022/03/21 10:26:34;;;;;;;;;;;20.00;48.50;;;;;;5043636;28;19913;-71
2022/03/21 10:29:05;;;;;;;;;;;18.90;49.00;;;;;;5040498;28;20138;-70
2022/03/21 10:31:37;;;;;;;;;;;18.10;50.40;;;;;;5034441;28;19910;-71
2022/03/21 10:34:03;;;;;;;;;;;17.40;51.00;;;;;;5034119;28;19913;-71
2022/03/21 10:36:29;;;;;;;;;;;17.70;52.10;;;;;;5034449;28;19909;-71
2022/03/21 10:39:08;;;;;;;;;;;19.20;50.40;;;;;;5034195;28;19920;-71
2022/03/21 10:41:37;;;;;;;;;;;19.60;49.60;;;;;;5046975;28;20235;-72
2022/03/21 10:44:04;;;;;;;;;;;19.30;46.30;;;;;;5053206;28;19913;-71
2022/03/21 10:46:29;;;;;;;;;;;20.60;49.10;;;;;;5052150;28;19908;-71
2022/03/21 10:49:20;;;;;;;;;;;22.20;46.00;;;;;;5053269;28;19916;-72
2022/03/21 10:51:47;;;;;;;;;;;23.50;45.60;;;;;;5064428;28;19919;-72
2022/03/21 10:54:31;;;;;;;;;;;23.10;43.50;;;;;;5052841;28;20357;-71
2022/03/21 10:56:57;;;;;;;;;;;22.80;43.70;;;;;;5042781;28;20370;-71
2022/03/21 10:59:22;;;;;;;;;;;23.50;42.90;;;;;;5048215;28;19909;-72
2022/03/21 11:01:48;;;;;;;;;;;24.70;42.10;;;;;;5033486;28;19908;-72
2022/03/21 11:04:14;;;;;;;;;;;25.70;39.10;;;;;;5033560;28;19909;-72
2022/03/21 11:06:39;;;;;;;;;;;24.90;40.30;;;;;;5033946;28;20313;-71
2022/03/21 11:09:05;;;;;;;;;;;24.70;40.00;;;;;;5034028;28;19928;-71
2022/03/21 11:11:33;;;;;;;;;;;24.00;39.20;;;;;;5035711;28;20358;-72
2022/03/21 11:13:59;;;;;;;;;;;25.00;41.50;;;;;;5033406;28;20289;-71
2022/03/21 11:16:24;;;;;;;;;;;22.80;41.20;;;;;;5033396;28;19921;-72
2022/03/21 11:18:56;;;;;;;;;;;23.20;42.50;;;;;;5033701;28;19909;-71
2022/03/21 11:21:21;;;;;;;;;;;22.30;42.80;;;;;;5033560;28;19910;-72
2022/03/21 11:23:47;;;;;;;;;;;22.00;42.80;;;;;;5038619;28;19958;-71
2022/03/21 11:26:13;;;;;;;;;;;22.70;43.40;;;;;;5043136;28;19916;-72
2022/03/21 11:28:53;;;;;;;;;;;22.50;41.70;;;;;;5033519;28;19909;-71
2022/03/21 11:31:29;;;;;;;;;;;21.60;44.60;;;;;;5033315;28;20381;-72
2022/03/21 11:34:06;;;;;;;;;;;21.20;43.60;;;;;;5033013;28;20191;-71
2022/03/21 11:36:32;;;;;;;;;;;20.50;43.80;;;;;;5047496;28;19912;-70
2022/03/21 11:39:00;;;;;;;;;;;20.60;45.70;;;;;;5052380;28;19920;-71
2022/03/21 11:41:26;;;;;;;;;;;21.60;44.80;;;;;;5052665;28;19913;-71
2022/03/21 11:44:04;;;;;;;;;;;21.70;46.70;;;;;;5052034;28;20023;-71
2022/03/21 11:46:30;;;;;;;;;;;22.20;42.90;;;;;;5052422;28;20070;-71
2022/03/21 11:49:16;;;;;;;;;;;20.90;42.90;;;;;;5052249;28;19913;-71
2022/03/21 11:51:43;;;;;;;;;;;20.00;45.90;;;;;;5050078;28;19915;-71
2022/03/21 11:54:28;;;;;;;;;;;20.00;44.00;;;;;;5040433;28;19913;-71
2022/03/21 11:56:54;;;;;;;;;;;20.30;45.30;;;;;;5032900;28;19909;-71
2022/03/21 11:59:31;;;;;;;;;;;20.80;46.00;;;;;;5032879;28;20396;-71
2022/03/21 12:01:57;;;;;;;;;;;21.50;44.00;;;;;;5032882;28;19909;-71
2022/03/21 12:04:29;;;;;;;;;;;20.30;43.90;;;;;;5032774;28;19909;-71
2022/03/21 12:07:18;;;;;;;;;;;19.10;47.70;;;;;;5032956;28;20001;-71
2022/03/21 12:09:44;;;;;;;;;;;17.80;48.80;;;;;;5035754;28;19983;-71
2022/03/21 12:12:10;;;;;;;;;;;17.70;49.00;;;;;;5031462;28;19909;-72
2022/03/21 12:14:40;;;;;;;;;;;17.30;49.20;;;;;;5033085;28;20479;-73
2022/03/21 12:17:05;;;;;;;;;;;17.40;50.40;;;;;;5032460;28;19921;-71
2022/03/21 12:19:58;;;;;;;;;;;17.10;50.10;;;;;;5032419;28;19909;-71
2022/03/21 12:22:26;;;;;;;;;;;17.20;50.50;;;;;;5040386;28;19909;-71
2022/03/21 12:24:52;;;;;;;;;;;16.60;48.00;;;;;;5045895;28;20313;-73
2022/03/21 12:27:34;;;;;;;;;;;16.80;51.00;;;;;;5032030;28;19920;-71
2022/03/21 12:30:18;;;;;;;;;;;16.70;49.20;;;;;;5032186;28;19913;-71
2022/03/21 12:32:48;;;;;;;;;;;16.30;50.50;;;;;;5031924;28;19920;-71
2022/03/21 12:35:31;;;;;;;;;;;16.00;48.70;;;;;;5031804;28;19956;-71
2022/03/21 12:38:10;;;;;;;;;;;16.00;47.60;;;;;;5045945;28;20373;-71
2022/03/21 12:40:37;;;;;;;;;;;15.90;47.90;;;;;;5051081;28;20385;-71
2022/03/21 12:43:03;;;;;;;;;;;16.60;49.20;;;;;;5050812;28;20370;-71
2022/03/21 12:45:29;;;;;;;;;;;16.50;46.80;;;;;;5050867;28;20382;-71
2022/03/21 12:48:04;;;;;;;;;;;16.40;48.40;;;;;;5050788;28;19923;-71
2022/03/21 12:50:30;;;;;;;;;;;16.50;48.60;;;;;;5051096;28;19909;-71
2022/03/21 12:52:57;;;;;;;;;;;16.10;48.90;;;;;;5041834;28;20458;-71
2022/03/21 12:55:23;;;;;;;;;;;16.00;47.30;;;;;;5051109;28;19955;-71
2022/03/21 12:57:59;;;;;;;;;;;16.60;47.90;;;;;;5031939;28;19909;-71
2022/03/21 13:00:30;;;;;;;;;;;16.50;47.10;;;;;;5037878;28;19963;-72
2022/03/21 13:02:56;;;;;;;;;;;16.80;49.00;;;;;;5050655;28;19991;-71
2022/03/21 13:11:05;;;;;;;;;;;16.60;48.90;;;;;;5049544;28;20027;-73
2022/03/21 13:13:41;;;;;;;;;;;16.60;49.70;;;;;;5050256;28;20404;-71
2022/03/21 13:16:09;;;;;;;;;;;16.40;48.70;;;;;;5050281;28;20316;-71
2022/03/21 13:18:38;;;;;;;;;;;16.30;46.30;;;;;;5032481;28;19998;-70
2022/03/21 13:21:04;;;;;;;;;;;16.10;46.40;;;;;;5031470;28;20367;-70
2022/03/21 13:23:30;;;;;;;;;;;16.30;47.60;;;;;;5038241;28;19913;-71
2022/03/21 13:26:28;;;;;;;;;;;16.30;49.40;;;;;;5033925;28;19959;-71
2022/03/21 13:29:03;;;;;;;;;;;16.20;48.00;;;;;;5047750;28;19940;-71
2022/03/21 13:31:29;;;;;;;;;;;16.30;49.20;;;;;;5031467;28;20362;-71
2022/03/21 13:33:54;;;;;;;;;;;15.90;47.30;;;;;;5030962;28;19917;-71
2022/03/21 13:36:26;;;;;;;;;;;16.00;49.20;;;;;;5031648;28;19913;-71
2022/03/21 13:39:11;;;;;;;;;;;16.10;47.20;;;;;;5031472;28;19936;-71
2022/03/21 13:41:55;;;;;;;;;;;16.30;48.20;;;;;;5031269;28;19914;-70
2022/03/21 13:44:22;;;;;;;;;;;16.30;48.20;;;;;;5045274;28;19936;-71
2022/03/21 13:47:00;;;;;;;;;;;15.90;48.20;;;;;;5050378;28;20320;-70
2022/03/21 13:49:45;;;;;;;;;;;15.60;48.10;;;;;;5050378;28;19913;-72
2022/03/21 13:52:11;;;;;;;;;;;15.90;48.90;;;;;;5044535;28;20410;-71
2022/03/21 13:54:59;;;;;;;;;;;16.00;48.70;;;;;;5042753;28;19920;-70
2022/03/21 13:57:24;;;;;;;;;;;15.90;49.10;;;;;;5031511;28;19909;-72
2022/03/21 14:00:10;;;;;;;;;;;16.10;49.90;;;;;;5031496;28;20389;-71
2022/03/21 14:02:42;;;;;;;;;;;16.00;48.90;;;;;;5031274;28;19909;-70
2022/03/21 14:05:27;;;;;;;;;;;15.80;49.00;;;;;;5030422;28;19913;-71
2022/03/21 14:08:07;;;;;;;;;;;15.90;50.00;;;;;;5043937;28;19988;-72
2022/03/21 14:10:37;;;;;;;;;;;15.80;49.50;;;;;;5050082;28;19916;-70
2022/03/21 14:13:03;;;;;;;;;;;15.60;48.90;;;;;;5049868;28;19913;-71
2022/03/21 14:15:28;;;;;;;;;;;15.60;50.10;;;;;;5049410;28;20263;-70
2022/03/21 14:17:54;;;;;;;;;;;15.50;49.30;;;;;;5050131;28;20205;-70
2022/03/21 14:20:19;;;;;;;;;;;15.40;49.10;;;;;;5050001;28;20362;-71
2022/03/21 14:22:46;;;;;;;;;;;15.50;50.70;;;;;;5041663;28;20354;-71
2022/03/21 14:27:56;;;;;;;;;;;15.50;50.20;;;;;;5030889;28;19916;-70
2022/03/21 14:30:21;;;;;;;;;;;15.60;52.60;;;;;;5030878;28;19909;-71
2022/03/21 14:32:48;;;;;;;;;;;15.60;51.00;;;;;;5030755;28;19913;-71
2022/03/21 14:35:13;;;;;;;;;;;15.60;51.40;;;;;;5032037;28;20479;-70
2022/03/21 14:37:39;;;;;;;;;;;15.30;51.10;;;;;;5034510;28;19913;-71
2022/03/21 14:40:05;;;;;;;;;;;15.30;51.30;;;;;;5034404;28;19909;-71
2022/03/21 14:42:30;;;;;;;;;;;15.30;51.40;;;;;;5033957;28;19909;-71
2022/03/21 14:44:56;;;;;;;;;;;15.30;51.60;;;;;;5033976;28;20168;-71
2022/03/21 14:47:22;;;;;;;;;;;15.50;52.30;;;;;;5034418;28;19909;-71
2022/03/21 14:49:48;;;;;;;;;;;15.50;51.20;;;;;;5034288;28;19916;-71
2022/03/21 14:52:13;;;;;;;;;;;15.60;51.60;;;;;;5035144;28;20363;-72
2022/03/21 14:54:39;;;;;;;;;;;15.50;50.60;;;;;;5045056;28;19914;-70